Mohicanville, Ohio
Current Conditions -  °F | °C
As of 2:56 AM on Friday 19 Dec 2014 (Local Time) from KBJJ Reporting Station
Haze Haze  
Wind Chill: 19°   Ceiling: 800
Heat Index: 28°   Visibility: 6mi
Dew Point: 25°   Wind: 9mph
Humidity: 88%   Direction: 280°W
Pressure: 30.17"   Gusts: NA
Location:  40.7919°N, 82.1797°W
Report Text: KBJJ 190756Z AUTO 28008KT 6SM BR OVC008 M02/M04 A3017 RMK AO2 SLP233 T10221039 TSNO
Loading
Personal Weather Stations






























Interactive Weather Map New forecast layout! Learn more

10-Day Weather Forecast

Advertisements
Track Severe Weather on mobile